sensor_id;sensor_type;location;lat;lon;timestamp;P1;durP1;ratioP1;P2;durP2;ratioP2
50605;SDS011;36557;53.572;10.170;2023-01-10T00:00:19;15.80;;;7.53;;
50605;SDS011;36557;53.572;10.170;2023-01-10T00:02:49;20.05;;;7.80;;
50605;SDS011;36557;53.572;10.170;2023-01-10T00:05:15;18.55;;;7.22;;
50605;SDS011;36557;53.572;10.170;2023-01-10T00:07:41;17.08;;;7.22;;
50605;SDS011;36557;53.572;10.170;2023-01-10T00:10:07;17.50;;;6.13;;
50605;SDS011;36557;53.572;10.170;2023-01-10T00:12:34;16.15;;;6.15;;
50605;SDS011;36557;53.572;10.170;2023-01-10T00:15:18;14.07;;;5.70;;
50605;SDS011;36557;53.572;10.170;2023-01-10T00:17:44;14.13;;;5.72;;
50605;SDS011;36557;53.572;10.170;2023-01-10T00:20:10;19.67;;;5.75;;
50605;SDS011;36557;53.572;10.170;2023-01-10T00:22:36;15.43;;;5.07;;
50605;SDS011;36557;53.572;10.170;2023-01-10T00:25:01;13.27;;;5.07;;
50605;SDS011;36557;53.572;10.170;2023-01-10T00:27:27;12.13;;;5.03;;
50605;SDS011;36557;53.572;10.170;2023-01-10T00:29:53;16.55;;;4.53;;
50605;SDS011;36557;53.572;10.170;2023-01-10T00:32:20;10.55;;;4.68;;
50605;SDS011;36557;53.572;10.170;2023-01-10T00:34:46;13.15;;;4.10;;
50605;SDS011;36557;53.572;10.170;2023-01-10T00:37:12;12.75;;;4.43;;
50605;SDS011;36557;53.572;10.170;2023-01-10T00:39:38;12.80;;;4.80;;
50605;SDS011;36557;53.572;10.170;2023-01-10T00:42:04;11.27;;;3.80;;
50605;SDS011;36557;53.572;10.170;2023-01-10T00:44:48;9.45;;;3.80;;
50605;SDS011;36557;53.572;10.170;2023-01-10T00:47:15;14.07;;;4.10;;
50605;SDS011;36557;53.572;10.170;2023-01-10T00:49:42;14.57;;;4.30;;
50605;SDS011;36557;53.572;10.170;2023-01-10T00:52:08;16.15;;;4.22;;
50605;SDS011;36557;53.572;10.170;2023-01-10T00:54:34;19.08;;;3.80;;
50605;SDS011;36557;53.572;10.170;2023-01-10T00:56:59;12.23;;;3.80;;
50605;SDS011;36557;53.572;10.170;2023-01-10T00:59:25;12.48;;;3.47;;
50605;SDS011;36557;53.572;10.170;2023-01-10T01:01:53;18.30;;;4.50;;
50605;SDS011;36557;53.572;10.170;2023-01-10T01:04:19;16.88;;;4.35;;
50605;SDS011;36557;53.572;10.170;2023-01-10T01:06:45;14.43;;;4.00;;
50605;SDS011;36557;53.572;10.170;2023-01-10T01:09:13;9.82;;;3.45;;
50605;SDS011;36557;53.572;10.170;2023-01-10T01:11:38;12.88;;;3.60;;
50605;SDS011;36557;53.572;10.170;2023-01-10T01:14:04;11.15;;;4.03;;
50605;SDS011;36557;53.572;10.170;2023-01-10T01:16:30;15.68;;;4.90;;
50605;SDS011;36557;53.572;10.170;2023-01-10T01:18:56;10.23;;;3.35;;
50605;SDS011;36557;53.572;10.170;2023-01-10T01:21:22;18.05;;;3.80;;
50605;SDS011;36557;53.572;10.170;2023-01-10T01:23:52;16.75;;;4.30;;
50605;SDS011;36557;53.572;10.170;2023-01-10T01:26:21;12.93;;;4.00;;
50605;SDS011;36557;53.572;10.170;2023-01-10T01:28:47;8.70;;;3.25;;
50605;SDS011;36557;53.572;10.170;2023-01-10T01:31:13;12.23;;;4.07;;
50605;SDS011;36557;53.572;10.170;2023-01-10T01:33:39;14.60;;;3.13;;
50605;SDS011;36557;53.572;10.170;2023-01-10T01:36:08;11.55;;;3.70;;
50605;SDS011;36557;53.572;10.170;2023-01-10T01:38:36;8.38;;;3.30;;
50605;SDS011;36557;53.572;10.170;2023-01-10T01:41:02;12.13;;;3.75;;
50605;SDS011;36557;53.572;10.170;2023-01-10T01:43:59;12.35;;;3.83;;
50605;SDS011;36557;53.572;10.170;2023-01-10T01:46:27;8.55;;;3.42;;
50605;SDS011;36557;53.572;10.170;2023-01-10T01:48:53;11.48;;;3.65;;
50605;SDS011;36557;53.572;10.170;2023-01-10T01:51:20;16.23;;;3.85;;
50605;SDS011;36557;53.572;10.170;2023-01-10T01:53:54;13.63;;;3.28;;
50605;SDS011;36557;53.572;10.170;2023-01-10T01:56:25;12.73;;;3.90;;
50605;SDS011;36557;53.572;10.170;2023-01-10T01:59:06;10.93;;;3.15;;
50605;SDS011;36557;53.572;10.170;2023-01-10T02:01:42;12.85;;;3.42;;
50605;SDS011;36557;53.572;10.170;2023-01-10T02:04:20;11.15;;;4.03;;
50605;SDS011;36557;53.572;10.170;2023-01-10T02:07:11;17.42;;;4.00;;
50605;SDS011;36557;53.572;10.170;2023-01-10T02:09:55;10.88;;;3.92;;
50605;SDS011;36557;53.572;10.170;2023-01-10T02:12:30;11.40;;;4.50;;
50605;SDS011;36557;53.572;10.170;2023-01-10T02:14:57;10.63;;;3.75;;
50605;SDS011;36557;53.572;10.170;2023-01-10T02:17:24;11.52;;;4.10;;
50605;SDS011;36557;53.572;10.170;2023-01-10T02:27:45;10.27;;;3.60;;
50605;SDS011;36557;53.572;10.170;2023-01-10T02:30:43;9.93;;;3.15;;
50605;SDS011;36557;53.572;10.170;2023-01-10T02:41:26;11.73;;;4.18;;
50605;SDS011;36557;53.572;10.170;2023-01-10T02:47:01;10.32;;;3.70;;
50605;SDS011;36557;53.572;10.170;2023-01-10T02:49:28;12.65;;;3.92;;
50605;SDS011;36557;53.572;10.170;2023-01-10T02:51:54;10.00;;;3.95;;
50605;SDS011;36557;53.572;10.170;2023-01-10T02:54:22;12.57;;;4.18;;
50605;SDS011;36557;53.572;10.170;2023-01-10T03:10:28;8.75;;;4.03;;
50605;SDS011;36557;53.572;10.170;2023-01-10T03:13:07;10.90;;;3.67;;
50605;SDS011;36557;53.572;10.170;2023-01-10T03:15:49;13.30;;;4.43;;
50605;SDS011;36557;53.572;10.170;2023-01-10T03:18:18;12.93;;;4.05;;
50605;SDS011;36557;53.572;10.170;2023-01-10T03:20:48;11.45;;;4.10;;
50605;SDS011;36557;53.572;10.170;2023-01-10T03:23:17;10.75;;;4.00;;
50605;SDS011;36557;53.572;10.170;2023-01-10T03:25:45;12.18;;;3.70;;
50605;SDS011;36557;53.572;10.170;2023-01-10T03:28:56;9.35;;;2.97;;
50605;SDS011;36557;53.572;10.170;2023-01-10T03:31:11;14.60;;;3.90;;
50605;SDS011;36557;53.572;10.170;2023-01-10T03:33:41;9.70;;;3.53;;
50605;SDS011;36557;53.572;10.170;2023-01-10T03:44:44;7.72;;;3.20;;
50605;SDS011;36557;53.572;10.170;2023-01-10T03:49:55;11.85;;;4.30;;
50605;SDS011;36557;53.572;10.170;2023-01-10T03:52:37;10.00;;;3.25;;
50605;SDS011;36557;53.572;10.170;2023-01-10T03:55:05;12.07;;;3.67;;
50605;SDS011;36557;53.572;10.170;2023-01-10T03:57:33;10.77;;;3.58;;
50605;SDS011;36557;53.572;10.170;2023-01-10T03:59:59;8.90;;;3.17;;
50605;SDS011;36557;53.572;10.170;2023-01-10T04:02:26;10.30;;;3.53;;
50605;SDS011;36557;53.572;10.170;2023-01-10T04:04:56;9.25;;;2.97;;
50605;SDS011;36557;53.572;10.170;2023-01-10T04:07:23;10.18;;;3.30;;
50605;SDS011;36557;53.572;10.170;2023-01-10T04:09:49;10.55;;;3.25;;
50605;SDS011;36557;53.572;10.170;2023-01-10T04:12:15;7.45;;;3.15;;
50605;SDS011;36557;53.572;10.170;2023-01-10T04:14:41;9.30;;;2.95;;
50605;SDS011;36557;53.572;10.170;2023-01-10T04:17:09;9.70;;;3.35;;
50605;SDS011;36557;53.572;10.170;2023-01-10T04:19:35;6.80;;;2.85;;
50605;SDS011;36557;53.572;10.170;2023-01-10T04:22:01;8.20;;;2.92;;
50605;SDS011;36557;53.572;10.170;2023-01-10T04:24:27;11.32;;;3.15;;
50605;SDS011;36557;53.572;10.170;2023-01-10T04:26:52;8.57;;;2.47;;
50605;SDS011;36557;53.572;10.170;2023-01-10T04:29:21;9.25;;;2.95;;
50605;SDS011;36557;53.572;10.170;2023-01-10T04:31:47;7.00;;;2.72;;
50605;SDS011;36557;53.572;10.170;2023-01-10T04:34:13;8.40;;;2.42;;
50605;SDS011;36557;53.572;10.170;2023-01-10T04:36:39;14.45;;;3.55;;
50605;SDS011;36557;53.572;10.170;2023-01-10T04:39:04;11.20;;;3.00;;
50605;SDS011;36557;53.572;10.170;2023-01-10T04:41:30;17.50;;;3.20;;
50605;SDS011;36557;53.572;10.170;2023-01-10T04:43:56;12.65;;;2.70;;
50605;SDS011;36557;53.572;10.170;2023-01-10T04:46:22;10.95;;;3.08;;
50605;SDS011;36557;53.572;10.170;2023-01-10T04:48:47;7.50;;;2.80;;
50605;SDS011;36557;53.572;10.170;2023-01-10T04:51:13;9.05;;;3.08;;
50605;SDS011;36557;53.572;10.170;2023-01-10T04:53:39;9.68;;;2.72;;
50605;SDS011;36557;53.572;10.170;2023-01-10T04:56:06;9.05;;;2.55;;
50605;SDS011;36557;53.572;10.170;2023-01-10T04:58:33;9.40;;;2.70;;
50605;SDS011;36557;53.572;10.170;2023-01-10T05:01:06;15.45;;;3.45;;
50605;SDS011;36557;53.572;10.170;2023-01-10T05:03:38;10.43;;;2.78;;
50605;SDS011;36557;53.572;10.170;2023-01-10T05:06:05;6.05;;;2.10;;
50605;SDS011;36557;53.572;10.170;2023-01-10T05:08:31;10.13;;;2.80;;
50605;SDS011;36557;53.572;10.170;2023-01-10T05:10:57;8.55;;;2.30;;
50605;SDS011;36557;53.572;10.170;2023-01-10T05:13:22;7.28;;;2.50;;
50605;SDS011;36557;53.572;10.170;2023-01-10T05:15:49;8.65;;;2.58;;
50605;SDS011;36557;53.572;10.170;2023-01-10T05:18:17;6.35;;;2.53;;
50605;SDS011;36557;53.572;10.170;2023-01-10T05:20:43;8.80;;;2.30;;
50605;SDS011;36557;53.572;10.170;2023-01-10T05:23:09;13.85;;;2.50;;
50605;SDS011;36557;53.572;10.170;2023-01-10T05:25:34;12.63;;;2.42;;
50605;SDS011;36557;53.572;10.170;2023-01-10T05:28:00;9.77;;;2.97;;
50605;SDS011;36557;53.572;10.170;2023-01-10T05:30:26;13.63;;;3.42;;
50605;SDS011;36557;53.572;10.170;2023-01-10T05:32:51;8.43;;;2.17;;
50605;SDS011;36557;53.572;10.170;2023-01-10T05:35:17;9.55;;;2.83;;
50605;SDS011;36557;53.572;10.170;2023-01-10T05:37:43;8.88;;;2.40;;
50605;SDS011;36557;53.572;10.170;2023-01-10T05:40:09;9.27;;;2.72;;
50605;SDS011;36557;53.572;10.170;2023-01-10T05:42:36;7.97;;;2.22;;
50605;SDS011;36557;53.572;10.170;2023-01-10T05:45:01;9.95;;;2.30;;
50605;SDS011;36557;53.572;10.170;2023-01-10T05:47:28;10.43;;;2.40;;
50605;SDS011;36557;53.572;10.170;2023-01-10T05:49:54;11.00;;;2.90;;
50605;SDS011;36557;53.572;10.170;2023-01-10T05:52:20;7.47;;;2.28;;
50605;SDS011;36557;53.572;10.170;2023-01-10T05:54:45;13.18;;;3.03;;
50605;SDS011;36557;53.572;10.170;2023-01-10T05:57:11;11.60;;;2.00;;
50605;SDS011;36557;53.572;10.170;2023-01-10T05:59:37;8.50;;;2.20;;
50605;SDS011;36557;53.572;10.170;2023-01-10T06:02:03;12.90;;;2.83;;
50605;SDS011;36557;53.572;10.170;2023-01-10T06:04:28;10.88;;;2.75;;
50605;SDS011;36557;53.572;10.170;2023-01-10T06:06:54;13.30;;;3.30;;
50605;SDS011;36557;53.572;10.170;2023-01-10T06:09:20;13.73;;;3.33;;
50605;SDS011;36557;53.572;10.170;2023-01-10T06:11:45;8.93;;;2.35;;
50605;SDS011;36557;53.572;10.170;2023-01-10T06:14:11;10.15;;;3.00;;
50605;SDS011;36557;53.572;10.170;2023-01-10T06:16:37;10.77;;;2.53;;
50605;SDS011;36557;53.572;10.170;2023-01-10T06:19:03;9.07;;;2.45;;
50605;SDS011;36557;53.572;10.170;2023-01-10T06:21:29;13.65;;;3.00;;
50605;SDS011;36557;53.572;10.170;2023-01-10T06:23:54;10.18;;;3.40;;
50605;SDS011;36557;53.572;10.170;2023-01-10T06:26:20;13.25;;;2.90;;
50605;SDS011;36557;53.572;10.170;2023-01-10T06:28:46;10.15;;;2.30;;
50605;SDS011;36557;53.572;10.170;2023-01-10T06:31:11;12.52;;;2.80;;
50605;SDS011;36557;53.572;10.170;2023-01-10T06:33:39;11.75;;;2.55;;
50605;SDS011;36557;53.572;10.170;2023-01-10T06:36:05;11.60;;;2.90;;
50605;SDS011;36557;53.572;10.170;2023-01-10T06:38:31;12.15;;;3.28;;
50605;SDS011;36557;53.572;10.170;2023-01-10T06:40:57;10.77;;;2.45;;
50605;SDS011;36557;53.572;10.170;2023-01-10T06:43:22;8.05;;;2.30;;
50605;SDS011;36557;53.572;10.170;2023-01-10T06:45:48;13.23;;;3.17;;
50605;SDS011;36557;53.572;10.170;2023-01-10T06:48:14;11.80;;;2.75;;
50605;SDS011;36557;53.572;10.170;2023-01-10T06:50:40;8.52;;;3.33;;
50605;SDS011;36557;53.572;10.170;2023-01-10T06:53:05;12.38;;;2.30;;
50605;SDS011;36557;53.572;10.170;2023-01-10T06:55:31;10.82;;;2.28;;
50605;SDS011;36557;53.572;10.170;2023-01-10T06:57:58;14.10;;;3.00;;
50605;SDS011;36557;53.572;10.170;2023-01-10T07:00:25;9.68;;;2.60;;
50605;SDS011;36557;53.572;10.170;2023-01-10T07:02:52;14.35;;;2.58;;
50605;SDS011;36557;53.572;10.170;2023-01-10T07:05:19;9.48;;;2.40;;
50605;SDS011;36557;53.572;10.170;2023-01-10T07:07:45;14.25;;;2.22;;
50605;SDS011;36557;53.572;10.170;2023-01-10T07:10:11;10.50;;;2.50;;
50605;SDS011;36557;53.572;10.170;2023-01-10T07:12:36;7.03;;;2.22;;
50605;SDS011;36557;53.572;10.170;2023-01-10T07:15:03;10.80;;;2.78;;
50605;SDS011;36557;53.572;10.170;2023-01-10T07:17:29;9.77;;;2.85;;
50605;SDS011;36557;53.572;10.170;2023-01-10T07:19:55;14.70;;;3.05;;
50605;SDS011;36557;53.572;10.170;2023-01-10T07:22:20;11.45;;;2.58;;
50605;SDS011;36557;53.572;10.170;2023-01-10T07:24:46;11.48;;;2.80;;
50605;SDS011;36557;53.572;10.170;2023-01-10T07:27:12;16.40;;;2.95;;
50605;SDS011;36557;53.572;10.170;2023-01-10T07:29:37;10.48;;;2.45;;
50605;SDS011;36557;53.572;10.170;2023-01-10T07:32:03;8.35;;;2.47;;
50605;SDS011;36557;53.572;10.170;2023-01-10T07:34:29;12.82;;;2.50;;
50605;SDS011;36557;53.572;10.170;2023-01-10T07:36:55;12.55;;;2.63;;
50605;SDS011;36557;53.572;10.170;2023-01-10T07:39:21;15.85;;;3.00;;
50605;SDS011;36557;53.572;10.170;2023-01-10T07:41:47;10.60;;;2.88;;
50605;SDS011;36557;53.572;10.170;2023-01-10T07:44:13;12.50;;;3.40;;
50605;SDS011;36557;53.572;10.170;2023-01-10T07:46:39;16.13;;;3.28;;
50605;SDS011;36557;53.572;10.170;2023-01-10T07:49:05;16.20;;;3.25;;
50605;SDS011;36557;53.572;10.170;2023-01-10T07:51:31;17.95;;;3.20;;
50605;SDS011;36557;53.572;10.170;2023-01-10T07:53:57;13.77;;;3.10;;
50605;SDS011;36557;53.572;10.170;2023-01-10T07:56:22;12.05;;;2.83;;
50605;SDS011;36557;53.572;10.170;2023-01-10T07:58:48;13.32;;;3.22;;
50605;SDS011;36557;53.572;10.170;2023-01-10T08:01:14;13.15;;;3.25;;
50605;SDS011;36557;53.572;10.170;2023-01-10T08:03:40;15.85;;;3.60;;
50605;SDS011;36557;53.572;10.170;2023-01-10T08:06:07;12.38;;;2.70;;
50605;SDS011;36557;53.572;10.170;2023-01-10T08:08:37;11.77;;;3.10;;
50605;SDS011;36557;53.572;10.170;2023-01-10T08:11:03;15.13;;;3.13;;
50605;SDS011;36557;53.572;10.170;2023-01-10T08:13:29;11.35;;;3.55;;
50605;SDS011;36557;53.572;10.170;2023-01-10T08:15:55;15.50;;;3.65;;
50605;SDS011;36557;53.572;10.170;2023-01-10T08:18:22;15.43;;;4.00;;
50605;SDS011;36557;53.572;10.170;2023-01-10T08:20:49;14.93;;;3.40;;
50605;SDS011;36557;53.572;10.170;2023-01-10T08:23:18;14.02;;;3.75;;
50605;SDS011;36557;53.572;10.170;2023-01-10T08:25:45;18.80;;;3.38;;
50605;SDS011;36557;53.572;10.170;2023-01-10T08:28:11;14.73;;;3.50;;
50605;SDS011;36557;53.572;10.170;2023-01-10T08:30:38;12.52;;;3.35;;
50605;SDS011;36557;53.572;10.170;2023-01-10T08:33:04;15.13;;;4.18;;
50605;SDS011;36557;53.572;10.170;2023-01-10T08:35:41;15.90;;;4.15;;
50605;SDS011;36557;53.572;10.170;2023-01-10T08:38:08;14.77;;;3.90;;
50605;SDS011;36557;53.572;10.170;2023-01-10T08:40:34;12.27;;;2.83;;
50605;SDS011;36557;53.572;10.170;2023-01-10T08:43:01;13.55;;;3.55;;
50605;SDS011;36557;53.572;10.170;2023-01-10T08:45:31;13.55;;;4.15;;
50605;SDS011;36557;53.572;10.170;2023-01-10T08:47:58;11.10;;;3.97;;
50605;SDS011;36557;53.572;10.170;2023-01-10T08:50:24;15.07;;;4.07;;
50605;SDS011;36557;53.572;10.170;2023-01-10T08:52:50;12.00;;;3.63;;
50605;SDS011;36557;53.572;10.170;2023-01-10T08:55:16;13.82;;;3.65;;
50605;SDS011;36557;53.572;10.170;2023-01-10T08:57:43;18.40;;;4.15;;
50605;SDS011;36557;53.572;10.170;2023-01-10T09:00:08;12.23;;;3.13;;
50605;SDS011;36557;53.572;10.170;2023-01-10T09:02:36;16.27;;;5.15;;
50605;SDS011;36557;53.572;10.170;2023-01-10T09:05:03;17.00;;;4.10;;
50605;SDS011;36557;53.572;10.170;2023-01-10T09:07:29;13.52;;;5.05;;
50605;SDS011;36557;53.572;10.170;2023-01-10T09:09:55;19.85;;;3.70;;
50605;SDS011;36557;53.572;10.170;2023-01-10T09:12:21;10.18;;;3.97;;
50605;SDS011;36557;53.572;10.170;2023-01-10T09:15:05;13.98;;;3.85;;
50605;SDS011;36557;53.572;10.170;2023-01-10T09:17:31;13.15;;;4.18;;
50605;SDS011;36557;53.572;10.170;2023-01-10T09:19:57;13.82;;;3.97;;
50605;SDS011;36557;53.572;10.170;2023-01-10T09:22:23;12.73;;;3.78;;
50605;SDS011;36557;53.572;10.170;2023-01-10T09:24:48;19.33;;;4.45;;
50605;SDS011;36557;53.572;10.170;2023-01-10T09:27:14;13.23;;;4.88;;
50605;SDS011;36557;53.572;10.170;2023-01-10T09:29:40;12.70;;;3.90;;
50605;SDS011;36557;53.572;10.170;2023-01-10T09:32:05;13.75;;;4.18;;
50605;SDS011;36557;53.572;10.170;2023-01-10T09:34:32;9.40;;;3.67;;
50605;SDS011;36557;53.572;10.170;2023-01-10T09:36:57;16.30;;;4.70;;
50605;SDS011;36557;53.572;10.170;2023-01-10T09:39:23;12.43;;;4.95;;
50605;SDS011;36557;53.572;10.170;2023-01-10T09:42:02;16.70;;;4.90;;
50605;SDS011;36557;53.572;10.170;2023-01-10T09:52:37;14.90;;;4.25;;
50605;SDS011;36557;53.572;10.170;2023-01-10T09:55:15;17.90;;;4.78;;
50605;SDS011;36557;53.572;10.170;2023-01-10T09:57:42;14.55;;;4.00;;
50605;SDS011;36557;53.572;10.170;2023-01-10T10:00:08;14.90;;;4.07;;
50605;SDS011;36557;53.572;10.170;2023-01-10T10:02:40;16.95;;;4.07;;
50605;SDS011;36557;53.572;10.170;2023-01-10T10:05:15;16.75;;;4.75;;
50605;SDS011;36557;53.572;10.170;2023-01-10T10:07:54;16.38;;;3.97;;
50605;SDS011;36557;53.572;10.170;2023-01-10T10:10:30;11.90;;;4.85;;
50605;SDS011;36557;53.572;10.170;2023-01-10T10:13:16;17.67;;;4.80;;
50605;SDS011;36557;53.572;10.170;2023-01-10T10:16:05;14.13;;;4.70;;
50605;SDS011;36557;53.572;10.170;2023-01-10T10:18:53;13.82;;;5.18;;
50605;SDS011;36557;53.572;10.170;2023-01-10T10:24:24;16.20;;;4.72;;
50605;SDS011;36557;53.572;10.170;2023-01-10T10:27:21;13.77;;;4.78;;
50605;SDS011;36557;53.572;10.170;2023-01-10T10:35:26;15.40;;;4.60;;
50605;SDS011;36557;53.572;10.170;2023-01-10T10:37:55;10.82;;;4.68;;
50605;SDS011;36557;53.572;10.170;2023-01-10T10:40:30;11.18;;;4.10;;
50605;SDS011;36557;53.572;10.170;2023-01-10T10:42:59;14.00;;;5.10;;
50605;SDS011;36557;53.572;10.170;2023-01-10T10:45:39;16.83;;;5.13;;
50605;SDS011;36557;53.572;10.170;2023-01-10T10:48:12;13.00;;;4.18;;
50605;SDS011;36557;53.572;10.170;2023-01-10T10:50:50;13.32;;;4.68;;
50605;SDS011;36557;53.572;10.170;2023-01-10T10:53:32;13.13;;;4.93;;
50605;SDS011;36557;53.572;10.170;2023-01-10T10:55:58;13.60;;;4.53;;
50605;SDS011;36557;53.572;10.170;2023-01-10T10:58:26;10.90;;;4.28;;
50605;SDS011;36557;53.572;10.170;2023-01-10T11:00:55;13.88;;;5.22;;
50605;SDS011;36557;53.572;10.170;2023-01-10T11:06:11;12.02;;;4.32;;
50605;SDS011;36557;53.572;10.170;2023-01-10T11:08:40;13.35;;;4.53;;
50605;SDS011;36557;53.572;10.170;2023-01-10T11:11:14;17.33;;;5.05;;
50605;SDS011;36557;53.572;10.170;2023-01-10T11:13:51;12.82;;;5.32;;
50605;SDS011;36557;53.572;10.170;2023-01-10T11:16:31;11.93;;;4.28;;
50605;SDS011;36557;53.572;10.170;2023-01-10T11:19:12;11.13;;;4.93;;
50605;SDS011;36557;53.572;10.170;2023-01-10T11:21:40;15.27;;;5.75;;
50605;SDS011;36557;53.572;10.170;2023-01-10T11:24:22;11.98;;;4.97;;
50605;SDS011;36557;53.572;10.170;2023-01-10T11:26:49;12.18;;;5.38;;
50605;SDS011;36557;53.572;10.170;2023-01-10T11:32:07;14.40;;;5.15;;
50605;SDS011;36557;53.572;10.170;2023-01-10T11:34:39;10.90;;;4.85;;
50605;SDS011;36557;53.572;10.170;2023-01-10T11:39:43;14.07;;;5.35;;
50605;SDS011;36557;53.572;10.170;2023-01-10T11:42:29;16.50;;;4.85;;
50605;SDS011;36557;53.572;10.170;2023-01-10T11:45:06;12.68;;;4.88;;
50605;SDS011;36557;53.572;10.170;2023-01-10T11:47:39;17.23;;;5.68;;
50605;SDS011;36557;53.572;10.170;2023-01-10T11:50:09;16.15;;;5.45;;
50605;SDS011;36557;53.572;10.170;2023-01-10T11:52:35;17.48;;;5.40;;
50605;SDS011;36557;53.572;10.170;2023-01-10T11:55:08;12.07;;;5.40;;
50605;SDS011;36557;53.572;10.170;2023-01-10T11:57:34;18.13;;;6.07;;
50605;SDS011;36557;53.572;10.170;2023-01-10T12:02:34;18.17;;;5.65;;
50605;SDS011;36557;53.572;10.170;2023-01-10T12:05:05;16.85;;;5.68;;
50605;SDS011;36557;53.572;10.170;2023-01-10T12:10:30;20.70;;;5.60;;
50605;SDS011;36557;53.572;10.170;2023-01-10T12:12:58;20.98;;;6.05;;
50605;SDS011;36557;53.572;10.170;2023-01-10T12:15:39;16.15;;;5.70;;
50605;SDS011;36557;53.572;10.170;2023-01-10T12:18:05;18.77;;;6.65;;
50605;SDS011;36557;53.572;10.170;2023-01-10T12:20:32;15.18;;;5.05;;
50605;SDS011;36557;53.572;10.170;2023-01-10T12:23:06;19.52;;;5.40;;
50605;SDS011;36557;53.572;10.170;2023-01-10T12:25:39;17.17;;;5.85;;
50605;SDS011;36557;53.572;10.170;2023-01-10T12:28:16;19.00;;;5.43;;
50605;SDS011;36557;53.572;10.170;2023-01-10T12:30:44;14.07;;;4.82;;
50605;SDS011;36557;53.572;10.170;2023-01-10T12:33:15;16.73;;;5.70;;
50605;SDS011;36557;53.572;10.170;2023-01-10T12:38:42;17.08;;;5.40;;
50605;SDS011;36557;53.572;10.170;2023-01-10T12:44:51;16.13;;;5.15;;
50605;SDS011;36557;53.572;10.170;2023-01-10T12:50:12;16.38;;;7.03;;
50605;SDS011;36557;53.572;10.170;2023-01-10T12:55:43;14.98;;;6.63;;
50605;SDS011;36557;53.572;10.170;2023-01-10T12:58:18;13.93;;;5.88;;
50605;SDS011;36557;53.572;10.170;2023-01-10T13:00:54;12.40;;;5.50;;
50605;SDS011;36557;53.572;10.170;2023-01-10T13:03:27;13.82;;;5.90;;
50605;SDS011;36557;53.572;10.170;2023-01-10T13:05:58;16.35;;;6.10;;
50605;SDS011;36557;53.572;10.170;2023-01-10T13:08:25;17.65;;;6.55;;
50605;SDS011;36557;53.572;10.170;2023-01-10T13:10:56;15.75;;;6.80;;
50605;SDS011;36557;53.572;10.170;2023-01-10T13:16:13;15.70;;;6.15;;
50605;SDS011;36557;53.572;10.170;2023-01-10T13:21:35;22.02;;;6.15;;
50605;SDS011;36557;53.572;10.170;2023-01-10T13:24:03;15.88;;;5.50;;
50605;SDS011;36557;53.572;10.170;2023-01-10T13:26:50;15.60;;;5.55;;
50605;SDS011;36557;53.572;10.170;2023-01-10T13:29:25;25.10;;;5.90;;
50605;SDS011;36557;53.572;10.170;2023-01-10T13:31:54;9.15;;;4.47;;
50605;SDS011;36557;53.572;10.170;2023-01-10T13:34:30;16.00;;;4.93;;
50605;SDS011;36557;53.572;10.170;2023-01-10T13:37:01;14.50;;;5.13;;
50605;SDS011;36557;53.572;10.170;2023-01-10T13:39:59;16.85;;;4.78;;
50605;SDS011;36557;53.572;10.170;2023-01-10T13:42:31;18.48;;;5.25;;
50605;SDS011;36557;53.572;10.170;2023-01-10T13:52:47;11.55;;;4.72;;
50605;SDS011;36557;53.572;10.170;2023-01-10T14:03:38;10.82;;;4.88;;
50605;SDS011;36557;53.572;10.170;2023-01-10T14:06:17;15.38;;;4.85;;
50605;SDS011;36557;53.572;10.170;2023-01-10T14:08:53;19.15;;;5.47;;
50605;SDS011;36557;53.572;10.170;2023-01-10T14:11:25;15.50;;;5.07;;
50605;SDS011;36557;53.572;10.170;2023-01-10T14:13:55;13.63;;;4.70;;
50605;SDS011;36557;53.572;10.170;2023-01-10T14:19:04;15.60;;;5.03;;
50605;SDS011;36557;53.572;10.170;2023-01-10T14:21:44;16.02;;;4.55;;
50605;SDS011;36557;53.572;10.170;2023-01-10T14:24:54;13.50;;;4.25;;
50605;SDS011;36557;53.572;10.170;2023-01-10T14:27:01;22.75;;;4.80;;
50605;SDS011;36557;53.572;10.170;2023-01-10T14:29:29;11.13;;;4.05;;
50605;SDS011;36557;53.572;10.170;2023-01-10T14:31:57;15.93;;;4.25;;
50605;SDS011;36557;53.572;10.170;2023-01-10T14:34:28;14.70;;;4.03;;
50605;SDS011;36557;53.572;10.170;2023-01-10T14:39:32;20.02;;;5.30;;
50605;SDS011;36557;53.572;10.170;2023-01-10T14:42:06;19.92;;;4.53;;
50605;SDS011;36557;53.572;10.170;2023-01-10T14:44:57;12.30;;;4.55;;
50605;SDS011;36557;53.572;10.170;2023-01-10T14:47:31;19.85;;;4.88;;
50605;SDS011;36557;53.572;10.170;2023-01-10T14:49:58;12.13;;;4.13;;
50605;SDS011;36557;53.572;10.170;2023-01-10T14:52:31;18.90;;;4.72;;
50605;SDS011;36557;53.572;10.170;2023-01-10T14:57:33;16.52;;;4.60;;
50605;SDS011;36557;53.572;10.170;2023-01-10T15:02:42;14.07;;;4.03;;
50605;SDS011;36557;53.572;10.170;2023-01-10T15:05:16;15.27;;;4.00;;
50605;SDS011;36557;53.572;10.170;2023-01-10T15:07:45;17.25;;;4.18;;
50605;SDS011;36557;53.572;10.170;2023-01-10T15:12:55;12.88;;;3.92;;
50605;SDS011;36557;53.572;10.170;2023-01-10T15:15:30;19.15;;;4.63;;
50605;SDS011;36557;53.572;10.170;2023-01-10T15:18:27;16.45;;;5.05;;
50605;SDS011;36557;53.572;10.170;2023-01-10T15:21:00;14.57;;;4.40;;
50605;SDS011;36557;53.572;10.170;2023-01-10T15:23:36;19.15;;;4.68;;
50605;SDS011;36557;53.572;10.170;2023-01-10T15:26:05;13.18;;;4.47;;
50605;SDS011;36557;53.572;10.170;2023-01-10T15:31:04;12.52;;;4.15;;
50605;SDS011;36557;53.572;10.170;2023-01-10T15:33:33;16.63;;;4.15;;
50605;SDS011;36557;53.572;10.170;2023-01-10T15:36:13;17.95;;;4.00;;
50605;SDS011;36557;53.572;10.170;2023-01-10T15:38:42;13.10;;;4.13;;
50605;SDS011;36557;53.572;10.170;2023-01-10T15:41:09;19.02;;;4.18;;
50605;SDS011;36557;53.572;10.170;2023-01-10T15:43:43;22.08;;;4.65;;
50605;SDS011;36557;53.572;10.170;2023-01-10T15:46:16;17.58;;;4.47;;
50605;SDS011;36557;53.572;10.170;2023-01-10T15:49:20;13.93;;;4.57;;
50605;SDS011;36557;53.572;10.170;2023-01-10T15:51:46;26.40;;;9.05;;
50605;SDS011;36557;53.572;10.170;2023-01-10T15:54:33;21.70;;;5.60;;
50605;SDS011;36557;53.572;10.170;2023-01-10T15:59:46;14.80;;;4.88;;
50605;SDS011;36557;53.572;10.170;2023-01-10T16:02:21;18.13;;;5.00;;
50605;SDS011;36557;53.572;10.170;2023-01-10T16:05:06;20.10;;;5.10;;
50605;SDS011;36557;53.572;10.170;2023-01-10T16:07:34;18.23;;;5.32;;
50605;SDS011;36557;53.572;10.170;2023-01-10T16:10:07;17.35;;;4.75;;
50605;SDS011;36557;53.572;10.170;2023-01-10T16:12:37;16.25;;;6.20;;
50605;SDS011;36557;53.572;10.170;2023-01-10T16:15:25;14.85;;;4.63;;
50605;SDS011;36557;53.572;10.170;2023-01-10T16:17:52;14.65;;;4.95;;
50605;SDS011;36557;53.572;10.170;2023-01-10T16:20:19;19.67;;;4.88;;
50605;SDS011;36557;53.572;10.170;2023-01-10T16:22:49;10.57;;;4.72;;
50605;SDS011;36557;53.572;10.170;2023-01-10T16:25:19;17.30;;;5.15;;
50605;SDS011;36557;53.572;10.170;2023-01-10T16:27:52;14.27;;;5.05;;
50605;SDS011;36557;53.572;10.170;2023-01-10T16:30:24;12.07;;;4.28;;
50605;SDS011;36557;53.572;10.170;2023-01-10T16:32:52;14.55;;;4.45;;
50605;SDS011;36557;53.572;10.170;2023-01-10T16:35:18;12.00;;;4.53;;
50605;SDS011;36557;53.572;10.170;2023-01-10T16:37:45;15.73;;;4.78;;
50605;SDS011;36557;53.572;10.170;2023-01-10T16:40:22;12.82;;;3.90;;
50605;SDS011;36557;53.572;10.170;2023-01-10T16:42:54;19.45;;;4.95;;
50605;SDS011;36557;53.572;10.170;2023-01-10T16:45:38;15.07;;;4.68;;